Time;durP1;ratioP1;P1;durP2;ratioP2;P2;SDS_P1;SDS_P2;PMS_P1;PMS_P2;Temp;Humidity;BMP_temperature;BMP_pressure;BME280_temperature;BME280_humidity;BME280_pressure;Samples;Min_cycle;Max_cycle;Signal;HPM_P1;HPM_P2
2019/10/27 00:00:16;;;;;;;10.75;5.35;;;;;;;9.54;100;95588.97;;;;
2019/10/27 00:01:17;;;;;;;6.400001;5.25;;;;;;;9.58;100;95585.63;;;;
2019/10/27 00:02:18;;;;;;;6.400001;5.25;;;;;;;9.58;100;95585.63;;;;
2019/10/27 00:03:35;;;;;;;7.1;5.349999;;;;;;;9.61;100;95588.37;;;;
2019/10/27 00:04:37;;;;;;;7.1;5.349999;;;;;;;9.61;100;95588.37;;;;
2019/10/27 00:05:38;;;;;;;7.1;5.349999;;;;;;;9.61;100;95588.37;;;;
2019/10/27 00:06:39;;;;;;;7.1;5.349999;;;;;;;9.61;100;95588.37;;;;
2019/10/27 00:07:40;;;;;;;7.1;5.349999;;;;;;;9.61;100;95588.37;;;;
2019/10/27 00:08:41;;;;;;;7.1;5.349999;;;;;;;9.61;100;95588.37;;;;
2019/10/27 00:09:43;;;;;;;7.1;5.349999;;;;;;;9.61;100;95588.37;;;;
2019/10/27 00:10:44;;;;;;;7.1;5.349999;;;;;;;9.61;100;95588.37;;;;
2019/10/27 00:11:45;;;;;;;7.1;5.349999;;;;;;;9.61;100;95588.37;;;;
2019/10/27 00:12:46;;;;;;;7.1;5.349999;;;;;;;9.61;100;95588.37;;;;
2019/10/27 00:13:47;;;;;;;5.35;4.25;;;;;;;9.33;100;95594.67;;;;
2019/10/27 00:14:48;;;;;;;5.35;4.25;;;;;;;9.33;100;95594.67;;;;
2019/10/27 00:15:49;;;;;;;5.35;4.25;;;;;;;9.33;100;95594.67;;;;
2019/10/27 00:16:51;;;;;;;7.6;4.75;;;;;;;9.33;100;95595.19;;;;
2019/10/27 00:17:52;;;;;;;7.6;4.75;;;;;;;9.33;100;95595.19;;;;
2019/10/27 00:18:53;;;;;;;7.6;4.75;;;;;;;9.33;100;95595.19;;;;
2019/10/27 00:19:54;;;;;;;7.6;4.75;;;;;;;9.33;100;95595.19;;;;
2019/10/27 00:20:55;;;;;;;7.6;4.75;;;;;;;9.33;100;95595.19;;;;
2019/10/27 00:21:56;;;;;;;7.6;4.75;;;;;;;9.33;100;95595.19;;;;
2019/10/27 00:22:58;;;;;;;7.6;4.75;;;;;;;9.33;100;95595.19;;;;
2019/10/27 00:23:59;;;;;;;7.6;4.75;;;;;;;9.33;100;95595.19;;;;
2019/10/27 00:25:00;;;;;;;7.6;4.75;;;;;;;9.33;100;95595.19;;;;
2019/10/27 00:26:02;;;;;;;7.6;4.75;;;;;;;9.33;100;95595.19;;;;
2019/10/27 00:27:04;;;;;;;7.85;4.500001;;;;;;;9.09;100;95594.65;;;;
2019/10/27 00:28:05;;;;;;;7.85;4.500001;;;;;;;9.09;100;95594.65;;;;
2019/10/27 00:29:06;;;;;;;7.85;4.500001;;;;;;;9.09;100;95594.65;;;;
2019/10/27 00:30:07;;;;;;;7.15;4.5;;;;;;;9.08;100;95591.66;;;;
2019/10/27 00:31:09;;;;;;;7.15;4.5;;;;;;;9.08;100;95591.66;;;;
2019/10/27 00:32:10;;;;;;;7.15;4.5;;;;;;;9.08;100;95591.66;;;;
2019/10/27 00:33:18;;;;;;;5.95;4.55;;;;;;;9.12;100;95593.69;;;;
2019/10/27 00:34:53;;;;;;;5.95;4.55;;;;;;;9.12;100;95593.69;;;;
2019/10/27 00:35:55;;;;;;;6.75;4.55;;;;;;;9.15;100;95587.47;;;;
2019/10/27 00:36:57;;;;;;;6.75;4.55;;;;;;;9.15;100;95587.47;;;;
2019/10/27 00:37:58;;;;;;;5.8;4.6;;;;;;;9.18;100;95586.6;;;;
2019/10/27 00:38:59;;;;;;;5.8;4.6;;;;;;;9.18;100;95586.6;;;;
2019/10/27 00:40:00;;;;;;;5.8;4.6;;;;;;;9.18;100;95586.6;;;;
2019/10/27 00:41:02;;;;;;;7.6;4.5;;;;;;;9.19;100;95592.3;;;;
2019/10/27 00:42:03;;;;;;;7.6;4.5;;;;;;;9.19;100;95592.3;;;;
2019/10/27 00:43:04;;;;;;;7.6;4.5;;;;;;;9.19;100;95592.3;;;;
2019/10/27 00:44:06;;;;;;;7.6;4.5;;;;;;;9.19;100;95592.3;;;;
2019/10/27 00:45:07;;;;;;;7.6;4.5;;;;;;;9.19;100;95592.3;;;;
2019/10/27 00:46:09;;;;;;;7.6;4.5;;;;;;;9.19;100;95592.3;;;;
2019/10/27 00:47:10;;;;;;;7.6;4.5;;;;;;;9.19;100;95592.3;;;;
2019/10/27 00:48:11;;;;;;;7.6;4.5;;;;;;;9.19;100;95592.3;;;;
2019/10/27 00:49:12;;;;;;;7.6;4.5;;;;;;;9.19;100;95592.3;;;;
2019/10/27 00:50:14;;;;;;;7.6;4.5;;;;;;;9.19;100;95592.3;;;;
2019/10/27 00:51:15;;;;;;;6.7;4.550001;;;;;;;8.84;100;95589.76;;;;
2019/10/27 00:52:16;;;;;;;6.7;4.550001;;;;;;;8.84;100;95589.76;;;;
2019/10/27 00:53:17;;;;;;;6.7;4.550001;;;;;;;8.84;100;95589.76;;;;
2019/10/27 00:54:18;;;;;;;6.1;4.600001;;;;;;;8.82;100;95589.56;;;;
2019/10/27 00:55:19;;;;;;;6.1;4.600001;;;;;;;8.82;100;95589.56;;;;
2019/10/27 00:56:21;;;;;;;6.1;4.600001;;;;;;;8.82;100;95589.56;;;;
2019/10/27 00:57:22;;;;;;;6.1;4.600001;;;;;;;8.82;100;95589.56;;;;
2019/10/27 00:58:23;;;;;;;6.1;4.600001;;;;;;;8.82;100;95589.56;;;;
2019/10/27 00:59:24;;;;;;;6.1;4.600001;;;;;;;8.82;100;95589.56;;;;
2019/10/27 01:00:25;;;;;;;6.1;4.600001;;;;;;;8.82;100;95589.56;;;;
2019/10/27 01:01:26;;;;;;;6.1;4.600001;;;;;;;8.82;100;95589.56;;;;
2019/10/27 01:02:28;;;;;;;6.1;4.600001;;;;;;;8.82;100;95589.56;;;;
2019/10/27 01:03:29;;;;;;;6.1;4.600001;;;;;;;8.82;100;95589.56;;;;
2019/10/27 01:04:30;;;;;;;5.65;5.05;;;;;;;8.61;100;95589.92;;;;
2019/10/27 01:05:31;;;;;;;5.65;5.05;;;;;;;8.61;100;95589.92;;;;
2019/10/27 01:06:32;;;;;;;5.65;5.05;;;;;;;8.61;100;95589.92;;;;
2019/10/27 01:07:33;;;;;;;7.4;5.299999;;;;;;;8.63;100;95585.14;;;;
2019/10/27 01:08:35;;;;;;;7.4;5.299999;;;;;;;8.63;100;95585.14;;;;
2019/10/27 01:09:36;;;;;;;7.4;5.299999;;;;;;;8.63;100;95585.14;;;;
2019/10/27 01:10:37;;;;;;;7.4;5.299999;;;;;;;8.63;100;95585.14;;;;
2019/10/27 01:11:38;;;;;;;7.4;5.299999;;;;;;;8.63;100;95585.14;;;;
2019/10/27 01:12:39;;;;;;;7.4;5.299999;;;;;;;8.63;100;95585.14;;;;
2019/10/27 01:13:40;;;;;;;7.4;5.299999;;;;;;;8.63;100;95585.14;;;;
2019/10/27 01:14:41;;;;;;;7.4;5.299999;;;;;;;8.63;100;95585.14;;;;
2019/10/27 01:15:42;;;;;;;7.4;5.299999;;;;;;;8.63;100;95585.14;;;;
2019/10/27 01:16:44;;;;;;;7.4;5.299999;;;;;;;8.63;100;95585.14;;;;
2019/10/27 01:17:45;;;;;;;6.95;4.75;;;;;;;8.63;100;95578;;;;
2019/10/27 01:18:46;;;;;;;6.95;4.75;;;;;;;8.63;100;95578;;;;
2019/10/27 01:19:47;;;;;;;6.95;4.75;;;;;;;8.63;100;95578;;;;
2019/10/27 01:20:48;;;;;;;6.649999;5.4;;;;;;;8.7;100;95577.34;;;;
2019/10/27 01:21:49;;;;;;;6.649999;5.4;;;;;;;8.7;100;95577.34;;;;
2019/10/27 01:22:50;;;;;;;6.649999;5.4;;;;;;;8.7;100;95577.34;;;;
2019/10/27 01:23:51;;;;;;;6.649999;5.4;;;;;;;8.7;100;95577.34;;;;
2019/10/27 01:24:53;;;;;;;6.649999;5.4;;;;;;;8.7;100;95577.34;;;;
2019/10/27 01:25:54;;;;;;;6.649999;5.4;;;;;;;8.7;100;95577.34;;;;
2019/10/27 01:26:55;;;;;;;6.649999;5.4;;;;;;;8.7;100;95577.34;;;;
2019/10/27 01:27:56;;;;;;;6.649999;5.4;;;;;;;8.7;100;95577.34;;;;
2019/10/27 01:28:57;;;;;;;6.649999;5.4;;;;;;;8.7;100;95577.34;;;;
2019/10/27 01:29:58;;;;;;;6.649999;5.4;;;;;;;8.7;100;95577.34;;;;
2019/10/27 01:30:59;;;;;;;5;4.199999;;;;;;;8.78;100;95568.15;;;;
2019/10/27 01:35:01;;;;;;;6.65;4.600001;;;;;;;8.82;100;95564.4;;;;
2019/10/27 01:36:03;;;;;;;6.95;5;;;;;;;8.92;100;95569.31;;;;
2019/10/27 01:37:04;;;;;;;6.95;5;;;;;;;8.92;100;95569.31;;;;
2019/10/27 01:38:05;;;;;;;6.95;5;;;;;;;8.92;100;95569.31;;;;
2019/10/27 01:39:06;;;;;;;7.1;4.649999;;;;;;;8.98;100;95567.91;;;;
2019/10/27 01:40:07;;;;;;;7.1;4.649999;;;;;;;8.98;100;95567.91;;;;
2019/10/27 01:41:08;;;;;;;7.1;4.649999;;;;;;;8.98;100;95567.91;;;;
2019/10/27 01:42:09;;;;;;;7.1;4.649999;;;;;;;8.98;100;95567.91;;;;
2019/10/27 01:43:11;;;;;;;7.1;4.649999;;;;;;;8.98;100;95567.91;;;;
2019/10/27 01:44:12;;;;;;;7.1;4.649999;;;;;;;8.98;100;95567.91;;;;
2019/10/27 01:45:13;;;;;;;7.1;4.649999;;;;;;;8.98;100;95567.91;;;;
2019/10/27 01:46:14;;;;;;;7.1;4.649999;;;;;;;8.98;100;95567.91;;;;
2019/10/27 01:47:15;;;;;;;7.1;4.649999;;;;;;;8.98;100;95567.91;;;;
2019/10/27 01:48:16;;;;;;;7.1;4.649999;;;;;;;8.98;100;95567.91;;;;
2019/10/27 01:49:18;;;;;;;6;4.500001;;;;;;;8.75;100;95560;;;;
2019/10/27 01:50:19;;;;;;;6;4.500001;;;;;;;8.75;100;95560;;;;
2019/10/27 01:51:20;;;;;;;6;4.500001;;;;;;;8.75;100;95560;;;;
2019/10/27 01:52:21;;;;;;;5.25;4.55;;;;;;;8.75;100;95564.14;;;;
2019/10/27 01:53:22;;;;;;;5.25;4.55;;;;;;;8.75;100;95564.14;;;;
2019/10/27 01:54:23;;;;;;;5.25;4.55;;;;;;;8.75;100;95564.14;;;;
2019/10/27 01:55:24;;;;;;;5.25;4.55;;;;;;;8.75;100;95564.14;;;;
2019/10/27 01:56:25;;;;;;;5.25;4.55;;;;;;;8.75;100;95564.14;;;;
2019/10/27 01:57:27;;;;;;;5.25;4.55;;;;;;;8.75;100;95564.14;;;;
2019/10/27 01:58:28;;;;;;;5.25;4.55;;;;;;;8.75;100;95564.14;;;;
2019/10/27 01:59:29;;;;;;;5.25;4.55;;;;;;;8.75;100;95564.14;;;;
2019/10/27 02:00:30;;;;;;;5.25;4.55;;;;;;;8.75;100;95564.14;;;;
2019/10/27 02:01:33;;;;;;;5.25;4.55;;;;;;;8.75;100;95564.14;;;;
2019/10/27 02:02:34;;;;;;;6.099999;4.299999;;;;;;;8.51;100;95556.86;;;;
2019/10/27 02:03:35;;;;;;;6.099999;4.299999;;;;;;;8.51;100;95556.86;;;;
2019/10/27 02:04:37;;;;;;;6.099999;4.299999;;;;;;;8.51;100;95556.86;;;;
2019/10/27 02:05:38;;;;;;;6.600001;4.45;;;;;;;8.5;100;95560.49;;;;
2019/10/27 02:06:39;;;;;;;6.600001;4.45;;;;;;;8.5;100;95560.49;;;;
2019/10/27 02:07:40;;;;;;;6.600001;4.45;;;;;;;8.5;100;95560.49;;;;
2019/10/27 02:08:44;;;;;;;6.600001;4.45;;;;;;;8.5;100;95560.49;;;;
2019/10/27 02:09:46;;;;;;;6.600001;4.45;;;;;;;8.5;100;95560.49;;;;
2019/10/27 02:10:47;;;;;;;6.600001;4.45;;;;;;;8.5;100;95560.49;;;;
2019/10/27 02:11:48;;;;;;;6.600001;4.45;;;;;;;8.5;100;95560.49;;;;
2019/10/27 02:12:49;;;;;;;6.600001;4.45;;;;;;;8.5;100;95560.49;;;;
2019/10/27 02:13:50;;;;;;;6.600001;4.45;;;;;;;8.5;100;95560.49;;;;
2019/10/27 02:14:52;;;;;;;6.600001;4.45;;;;;;;8.5;100;95560.49;;;;
2019/10/27 02:15:53;;;;;;;7.799999;4.6;;;;;;;8.29;100;95558.12;;;;
2019/10/27 02:16:54;;;;;;;7.799999;4.6;;;;;;;8.29;100;95558.12;;;;
2019/10/27 02:17:55;;;;;;;7.799999;4.6;;;;;;;8.29;100;95558.12;;;;
2019/10/27 02:18:57;;;;;;;6.2;4.95;;;;;;;8.3;100;95561.63;;;;
2019/10/27 02:19:58;;;;;;;6.2;4.95;;;;;;;8.3;100;95561.63;;;;
2019/10/27 02:20:59;;;;;;;6.2;4.95;;;;;;;8.3;100;95561.63;;;;
2019/10/27 02:22:00;;;;;;;6.2;4.95;;;;;;;8.3;100;95561.63;;;;
2019/10/27 02:23:02;;;;;;;6.2;4.95;;;;;;;8.3;100;95561.63;;;;
2019/10/27 02:24:03;;;;;;;6.2;4.95;;;;;;;8.3;100;95561.63;;;;
2019/10/27 02:25:04;;;;;;;6.2;4.95;;;;;;;8.3;100;95561.63;;;;
2019/10/27 02:26:06;;;;;;;6.2;4.95;;;;;;;8.3;100;95561.63;;;;
2019/10/27 02:27:07;;;;;;;6.2;4.95;;;;;;;8.3;100;95561.63;;;;
2019/10/27 02:28:08;;;;;;;6.2;4.95;;;;;;;8.3;100;95561.63;;;;
2019/10/27 02:29:09;;;;;;;8.349999;4.7;;;;;;;8.13;100;95556.28;;;;
2019/10/27 02:30:11;;;;;;;8.349999;4.7;;;;;;;8.13;100;95556.28;;;;
2019/10/27 02:31:12;;;;;;;8.349999;4.7;;;;;;;8.13;100;95556.28;;;;
2019/10/27 02:32:14;;;;;;;5.5;5;;;;;;;8.16;100;95554.12;;;;
2019/10/27 02:33:15;;;;;;;5.5;5;;;;;;;8.16;100;95554.12;;;;
2019/10/27 02:34:16;;;;;;;5.5;5;;;;;;;8.16;100;95554.12;;;;
2019/10/27 02:35:19;;;;;;;5.5;5;;;;;;;8.16;100;95554.12;;;;
2019/10/27 02:36:20;;;;;;;5.5;5;;;;;;;8.16;100;95554.12;;;;
2019/10/27 02:37:21;;;;;;;5.5;5;;;;;;;8.16;100;95554.12;;;;
2019/10/27 02:38:23;;;;;;;5.5;5;;;;;;;8.16;100;95554.12;;;;
2019/10/27 02:39:24;;;;;;;5.5;5;;;;;;;8.16;100;95554.12;;;;
2019/10/27 02:40:25;;;;;;;5.5;5;;;;;;;8.16;100;95554.12;;;;
2019/10/27 02:41:27;;;;;;;5.5;5;;;;;;;8.16;100;95554.12;;;;
2019/10/27 02:42:28;;;;;;;5.9;4.5;;;;;;;8.09;100;95541.74;;;;
2019/10/27 02:43:29;;;;;;;5.9;4.5;;;;;;;8.09;100;95541.74;;;;
2019/10/27 02:44:30;;;;;;;5.9;4.5;;;;;;;8.09;100;95541.74;;;;
2019/10/27 02:45:32;;;;;;;6.050001;4.6;;;;;;;8.14;100;95548.55;;;;
2019/10/27 02:46:33;;;;;;;6.050001;4.6;;;;;;;8.14;100;95548.55;;;;
2019/10/27 02:47:34;;;;;;;6.050001;4.6;;;;;;;8.14;100;95548.55;;;;
2019/10/27 02:48:35;;;;;;;6.050001;4.6;;;;;;;8.14;100;95548.55;;;;
2019/10/27 02:49:36;;;;;;;6.050001;4.6;;;;;;;8.14;100;95548.55;;;;
2019/10/27 02:50:38;;;;;;;6.050001;4.6;;;;;;;8.14;100;95548.55;;;;
2019/10/27 02:51:39;;;;;;;6.050001;4.6;;;;;;;8.14;100;95548.55;;;;
2019/10/27 02:52:40;;;;;;;6.050001;4.6;;;;;;;8.14;100;95548.55;;;;
2019/10/27 02:53:41;;;;;;;6.050001;4.6;;;;;;;8.14;100;95548.55;;;;
2019/10/27 02:54:42;;;;;;;6.050001;4.6;;;;;;;8.14;100;95548.55;;;;
2019/10/27 02:55:43;;;;;;;6.2;4.75;;;;;;;8.26;100;95553.16;;;;
2019/10/27 02:56:45;;;;;;;6.2;4.75;;;;;;;8.26;100;95553.16;;;;
2019/10/27 02:57:46;;;;;;;6.2;4.75;;;;;;;8.26;100;95553.16;;;;
2019/10/27 02:58:47;;;;;;;6.2;4.75;;;;;;;8.26;100;95553.16;;;;
2019/10/27 02:59:48;;;;;;;6.2;4.75;;;;;;;8.26;100;95553.16;;;;
2019/10/27 03:00:50;;;;;;;6.2;4.75;;;;;;;8.26;100;95553.16;;;;
2019/10/27 03:01:51;;;;;;;6.2;4.75;;;;;;;8.26;100;95553.16;;;;
2019/10/27 03:02:52;;;;;;;6.2;4.75;;;;;;;8.26;100;95553.16;;;;
2019/10/27 03:03:53;;;;;;;6.2;4.75;;;;;;;8.26;100;95553.16;;;;
2019/10/27 03:04:55;;;;;;;6.2;4.75;;;;;;;8.26;100;95553.16;;;;
2019/10/27 03:05:56;;;;;;;6.2;4.75;;;;;;;8.26;100;95553.16;;;;
2019/10/27 03:06:57;;;;;;;6.299999;4.4;;;;;;;8.47;100;95542.19;;;;
2019/10/27 03:07:58;;;;;;;6.299999;4.4;;;;;;;8.47;100;95542.19;;;;
2019/10/27 03:09:00;;;;;;;6.299999;4.4;;;;;;;8.47;100;95542.19;;;;
2019/10/27 03:10:01;;;;;;;6.299999;4.4;;;;;;;8.47;100;95542.19;;;;
2019/10/27 03:11:02;;;;;;;6.299999;4.4;;;;;;;8.47;100;95542.19;;;;
2019/10/27 03:12:04;;;;;;;6.299999;4.4;;;;;;;8.47;100;95542.19;;;;
2019/10/27 03:13:05;;;;;;;6.299999;4.4;;;;;;;8.47;100;95542.19;;;;
2019/10/27 03:14:06;;;;;;;6.299999;4.4;;;;;;;8.47;100;95542.19;;;;
2019/10/27 03:15:07;;;;;;;6.299999;4.4;;;;;;;8.47;100;95542.19;;;;
2019/10/27 03:16:41;;;;;;;6.299999;4.4;;;;;;;8.47;100;95542.19;;;;
2019/10/27 03:17:47;;;;;;;7.5;4.8;;;;;;;8.57;100;95535.8;;;;
2019/10/27 03:18:51;;;;;;;7.5;4.8;;;;;;;8.57;100;95535.8;;;;
2019/10/27 03:19:52;;;;;;;6.75;4.55;;;;;;;8.64;100;95535.64;;;;
2019/10/27 03:20:53;;;;;;;6.75;4.55;;;;;;;8.64;100;95535.64;;;;
2019/10/27 03:21:55;;;;;;;6.75;4.55;;;;;;;8.64;100;95535.64;;;;
2019/10/27 03:22:56;;;;;;;6.75;4.55;;;;;;;8.64;100;95535.64;;;;
2019/10/27 03:23:57;;;;;;;6.75;4.55;;;;;;;8.64;100;95535.64;;;;
2019/10/27 03:24:58;;;;;;;6.75;4.55;;;;;;;8.64;100;95535.64;;;;
2019/10/27 03:26:00;;;;;;;6.75;4.55;;;;;;;8.64;100;95535.64;;;;
2019/10/27 03:27:01;;;;;;;6.75;4.55;;;;;;;8.64;100;95535.64;;;;
2019/10/27 03:28:02;;;;;;;6.75;4.55;;;;;;;8.64;100;95535.64;;;;
2019/10/27 03:29:03;;;;;;;6.75;4.55;;;;;;;8.64;100;95535.64;;;;
2019/10/27 03:30:04;;;;;;;7.05;4.45;;;;;;;8.64;100;95549.1;;;;
2019/10/27 03:31:06;;;;;;;7.05;4.45;;;;;;;8.64;100;95549.1;;;;
2019/10/27 03:32:07;;;;;;;7.05;4.45;;;;;;;8.64;100;95549.1;;;;
2019/10/27 03:33:09;;;;;;;5.599999;4;;;;;;;8.68;100;95552.08;;;;
2019/10/27 03:34:10;;;;;;;5.599999;4;;;;;;;8.68;100;95552.08;;;;
2019/10/27 03:35:11;;;;;;;5.599999;4;;;;;;;8.68;100;95552.08;;;;
2019/10/27 03:36:12;;;;;;;5.599999;4;;;;;;;8.68;100;95552.08;;;;
2019/10/27 03:37:13;;;;;;;5.599999;4;;;;;;;8.68;100;95552.08;;;;
2019/10/27 03:38:14;;;;;;;5.599999;4;;;;;;;8.68;100;95552.08;;;;
2019/10/27 03:39:15;;;;;;;5.599999;4;;;;;;;8.68;100;95552.08;;;;
2019/10/27 03:40:16;;;;;;;5.599999;4;;;;;;;8.68;100;95552.08;;;;
2019/10/27 03:41:18;;;;;;;5.599999;4;;;;;;;8.68;100;95552.08;;;;
2019/10/27 03:42:19;;;;;;;5.599999;4;;;;;;;8.68;100;95552.08;;;;
2019/10/27 03:43:20;;;;;;;5.449999;4.15;;;;;;;8.66;100;95549.7;;;;
2019/10/27 03:44:22;;;;;;;5.449999;4.15;;;;;;;8.66;100;95549.7;;;;
2019/10/27 03:45:23;;;;;;;5.449999;4.15;;;;;;;8.66;100;95549.7;;;;
2019/10/27 03:46:26;;;;;;;6.25;4.4;;;;;;;8.7;100;95553.11;;;;
2019/10/27 03:47:28;;;;;;;6.25;4.4;;;;;;;8.7;100;95553.11;;;;
2019/10/27 03:48:29;;;;;;;6.25;4.4;;;;;;;8.7;100;95553.11;;;;
2019/10/27 03:49:37;;;;;;;6.25;4.4;;;;;;;8.7;100;95553.11;;;;
2019/10/27 03:50:42;;;;;;;6.25;4.4;;;;;;;8.7;100;95553.11;;;;
2019/10/27 03:51:44;;;;;;;6.25;4.4;;;;;;;8.7;100;95553.11;;;;
2019/10/27 03:52:46;;;;;;;6.25;4.4;;;;;;;8.7;100;95553.11;;;;
2019/10/27 03:53:51;;;;;;;6.25;4.4;;;;;;;8.7;100;95553.11;;;;
2019/10/27 03:54:55;;;;;;;6.25;4.4;;;;;;;8.7;100;95553.11;;;;
2019/10/27 03:55:57;;;;;;;6.25;4.4;;;;;;;8.7;100;95553.11;;;;
2019/10/27 03:56:58;;;;;;;5.75;3.95;;;;;;;8.65;100;95556.15;;;;
2019/10/27 03:57:59;;;;;;;5.75;3.95;;;;;;;8.65;100;95556.15;;;;
2019/10/27 03:59:00;;;;;;;5.75;3.95;;;;;;;8.65;100;95556.15;;;;
2019/10/27 04:00:02;;;;;;;5.35;3.75;;;;;;;8.68;100;95553.85;;;;
2019/10/27 04:01:03;;;;;;;5.35;3.75;;;;;;;8.68;100;95553.85;;;;
2019/10/27 04:02:05;;;;;;;5.35;3.75;;;;;;;8.68;100;95553.85;;;;
2019/10/27 04:03:06;;;;;;;5.35;3.75;;;;;;;8.68;100;95553.85;;;;
2019/10/27 04:04:07;;;;;;;5.35;3.75;;;;;;;8.68;100;95553.85;;;;
2019/10/27 04:05:08;;;;;;;5.35;3.75;;;;;;;8.68;100;95553.85;;;;
2019/10/27 04:06:09;;;;;;;5.35;3.75;;;;;;;8.68;100;95553.85;;;;
2019/10/27 04:07:11;;;;;;;5.35;3.75;;;;;;;8.68;100;95553.85;;;;
2019/10/27 04:08:12;;;;;;;5.35;3.75;;;;;;;8.68;100;95553.85;;;;
2019/10/27 04:09:14;;;;;;;5.35;3.75;;;;;;;8.68;100;95553.85;;;;
2019/10/27 04:10:15;;;;;;;5.849999;4.35;;;;;;;8.68;100;95556.53;;;;
2019/10/27 04:11:16;;;;;;;5.849999;4.35;;;;;;;8.68;100;95556.53;;;;
2019/10/27 04:12:17;;;;;;;5.849999;4.35;;;;;;;8.68;100;95556.53;;;;
2019/10/27 04:13:19;;;;;;;5.849999;4.35;;;;;;;8.68;100;95556.53;;;;
2019/10/27 04:14:20;;;;;;;5.849999;4.35;;;;;;;8.68;100;95556.53;;;;
2019/10/27 04:15:21;;;;;;;5.849999;4.35;;;;;;;8.68;100;95556.53;;;;
2019/10/27 04:16:22;;;;;;;5.849999;4.35;;;;;;;8.68;100;95556.53;;;;
2019/10/27 04:17:24;;;;;;;5.849999;4.35;;;;;;;8.68;100;95556.53;;;;
2019/10/27 04:18:25;;;;;;;5.849999;4.35;;;;;;;8.68;100;95556.53;;;;
2019/10/27 04:19:26;;;;;;;5.849999;4.35;;;;;;;8.68;100;95556.53;;;;
2019/10/27 04:20:27;;;;;;;5.900001;4.400001;;;;;;;8.79;100;95557.19;;;;
2019/10/27 04:21:33;;;;;;;5.900001;4.400001;;;;;;;8.79;100;95557.19;;;;
2019/10/27 04:22:36;;;;;;;5.900001;4.400001;;;;;;;8.79;100;95557.19;;;;
2019/10/27 04:23:38;;;;;;;5.900001;4.400001;;;;;;;8.79;100;95557.19;;;;
2019/10/27 04:24:39;;;;;;;5.900001;4.400001;;;;;;;8.79;100;95557.19;;;;
2019/10/27 04:25:43;;;;;;;5.900001;4.400001;;;;;;;8.79;100;95557.19;;;;
2019/10/27 04:26:47;;;;;;;5.900001;4.400001;;;;;;;8.79;100;95557.19;;;;
2019/10/27 04:27:57;;;;;;;5.900001;4.400001;;;;;;;8.79;100;95557.19;;;;
2019/10/27 04:29:01;;;;;;;5.900001;4.400001;;;;;;;8.79;100;95557.19;;;;
2019/10/27 04:30:03;;;;;;;5.900001;4.400001;;;;;;;8.79;100;95557.19;;;;
2019/10/27 04:31:05;;;;;;;5.900001;4.400001;;;;;;;8.79;100;95557.19;;;;
2019/10/27 04:32:06;;;;;;;5.900001;4.400001;;;;;;;8.79;100;95557.19;;;;
2019/10/27 04:33:07;;;;;;;5.900001;4.400001;;;;;;;8.79;100;95557.19;;;;
2019/10/27 04:34:09;;;;;;;5.900001;4.400001;;;;;;;8.79;100;95557.19;;;;
2019/10/27 04:35:11;;;;;;;5.900001;4.400001;;;;;;;8.79;100;95557.19;;;;
2019/10/27 04:36:45;;;;;;;5.900001;4.400001;;;;;;;8.79;100;95557.19;;;;
2019/10/27 04:40:31;;;;;;;5.900001;4.400001;;;;;;;8.79;100;95557.19;;;;
2019/10/27 04:41:41;;;;;;;5.900001;4.400001;;;;;;;8.79;100;95557.19;;;;
2019/10/27 04:42:55;;;;;;;5.95;4.199999;;;;;;;8.96;100;95553.41;;;;
2019/10/27 04:44:12;;;;;;;5.95;4.199999;;;;;;;8.96;100;95553.41;;;;
2019/10/27 04:45:14;;;;;;;5.95;4.199999;;;;;;;8.96;100;95553.41;;;;
2019/10/27 04:46:15;;;;;;;5.95;4.199999;;;;;;;8.96;100;95553.41;;;;
2019/10/27 04:47:20;;;;;;;5.95;4.199999;;;;;;;8.96;100;95553.41;;;;
2019/10/27 04:48:22;;;;;;;5.95;4.199999;;;;;;;8.96;100;95553.41;;;;
2019/10/27 04:49:32;;;;;;;5.95;4.199999;;;;;;;8.96;100;95553.41;;;;
2019/10/27 04:50:39;;;;;;;5.95;4.199999;;;;;;;8.96;100;95553.41;;;;
2019/10/27 04:55:49;;;;;;;5.450001;3.55;;;;;;;8.88;100;95554.63;;;;
2019/10/27 04:56:51;;;;;;;5.450001;3.55;;;;;;;8.88;100;95554.63;;;;
2019/10/27 04:57:52;;;;;;;5.450001;3.55;;;;;;;8.88;100;95554.63;;;;
2019/10/27 04:58:53;;;;;;;5.450001;3.55;;;;;;;8.88;100;95554.63;;;;
2019/10/27 04:59:54;;;;;;;5.450001;3.55;;;;;;;8.88;100;95554.63;;;;
2019/10/27 05:00:55;;;;;;;5.450001;3.55;;;;;;;8.88;100;95554.63;;;;
2019/10/27 05:01:57;;;;;;;5.450001;3.55;;;;;;;8.88;100;95554.63;;;;
2019/10/27 05:02:58;;;;;;;5.450001;3.55;;;;;;;8.88;100;95554.63;;;;
2019/10/27 05:03:59;;;;;;;5.249999;4;;;;;;;8.98;100;95545.94;;;;
2019/10/27 05:05:00;;;;;;;5.249999;4;;;;;;;8.98;100;95545.94;;;;
2019/10/27 05:06:01;;;;;;;5.249999;4;;;;;;;8.98;100;95545.94;;;;
2019/10/27 05:07:02;;;;;;;5.249999;4;;;;;;;8.98;100;95545.94;;;;
2019/10/27 05:08:04;;;;;;;5.249999;4;;;;;;;8.98;100;95545.94;;;;
2019/10/27 05:09:06;;;;;;;5.249999;4;;;;;;;8.98;100;95545.94;;;;
2019/10/27 05:10:07;;;;;;;5.249999;4;;;;;;;8.98;100;95545.94;;;;
2019/10/27 05:11:08;;;;;;;5.249999;4;;;;;;;8.98;100;95545.94;;;;
2019/10/27 05:12:09;;;;;;;5.249999;4;;;;;;;8.98;100;95545.94;;;;
2019/10/27 05:13:11;;;;;;;5.249999;4;;;;;;;8.98;100;95545.94;;;;
2019/10/27 05:14:12;;;;;;;5.499999;3.5;;;;;;;8.93;100;95538.64;;;;
2019/10/27 05:15:13;;;;;;;5.499999;3.5;;;;;;;8.93;100;95538.64;;;;
2019/10/27 05:16:14;;;;;;;5.499999;3.5;;;;;;;8.93;100;95538.64;;;;
2019/10/27 05:17:15;;;;;;;5.499999;3.5;;;;;;;8.93;100;95538.64;;;;
2019/10/27 05:18:16;;;;;;;5.499999;3.5;;;;;;;8.93;100;95538.64;;;;
2019/10/27 05:19:17;;;;;;;5.499999;3.5;;;;;;;8.93;100;95538.64;;;;
2019/10/27 05:20:19;;;;;;;5.499999;3.5;;;;;;;8.93;100;95538.64;;;;
2019/10/27 05:21:22;;;;;;;5.499999;3.5;;;;;;;8.93;100;95538.64;;;;
2019/10/27 05:22:24;;;;;;;5.499999;3.5;;;;;;;8.93;100;95538.64;;;;
2019/10/27 05:23:25;;;;;;;5.499999;3.5;;;;;;;8.93;100;95538.64;;;;
2019/10/27 05:24:27;;;;;;;7.050001;3.95;;;;;;;8.87;100;95536.71;;;;
2019/10/27 05:25:28;;;;;;;7.050001;3.95;;;;;;;8.87;100;95536.71;;;;
2019/10/27 05:26:29;;;;;;;7.050001;3.95;;;;;;;8.87;100;95536.71;;;;
2019/10/27 05:27:31;;;;;;;7.050001;3.95;;;;;;;8.87;100;95536.71;;;;
2019/10/27 05:28:32;;;;;;;7.050001;3.95;;;;;;;8.87;100;95536.71;;;;
2019/10/27 05:29:33;;;;;;;7.050001;3.95;;;;;;;8.87;100;95536.71;;;;
2019/10/27 05:30:35;;;;;;;7.050001;3.95;;;;;;;8.87;100;95536.71;;;;
2019/10/27 05:31:36;;;;;;;7.050001;3.95;;;;;;;8.87;100;95536.71;;;;
2019/10/27 05:32:38;;;;;;;7.050001;3.95;;;;;;;8.87;100;95536.71;;;;
2019/10/27 05:33:40;;;;;;;7.050001;3.95;;;;;;;8.87;100;95536.71;;;;
2019/10/27 05:34:41;;;;;;;7.050001;3.95;;;;;;;8.87;100;95536.71;;;;
2019/10/27 05:35:42;;;;;;;5.199999;3.7;;;;;;;8.75;100;95545.71;;;;
2019/10/27 05:36:44;;;;;;;5.199999;3.7;;;;;;;8.75;100;95545.71;;;;
2019/10/27 05:37:45;;;;;;;5.199999;3.7;;;;;;;8.75;100;95545.71;;;;
2019/10/27 05:38:46;;;;;;;5.199999;3.7;;;;;;;8.75;100;95545.71;;;;
2019/10/27 05:39:47;;;;;;;5.199999;3.7;;;;;;;8.75;100;95545.71;;;;
2019/10/27 05:40:48;;;;;;;5.199999;3.7;;;;;;;8.75;100;95545.71;;;;
2019/10/27 05:41:49;;;;;;;5.199999;3.7;;;;;;;8.75;100;95545.71;;;;
2019/10/27 05:42:50;;;;;;;5.199999;3.7;;;;;;;8.75;100;95545.71;;;;
2019/10/27 05:43:51;;;;;;;5.199999;3.7;;;;;;;8.75;100;95545.71;;;;
2019/10/27 05:44:52;;;;;;;5.199999;3.7;;;;;;;8.75;100;95545.71;;;;
2019/10/27 05:45:54;;;;;;;5.35;3.65;;;;;;;8.88;100;95552.76;;;;
2019/10/27 05:46:55;;;;;;;5.35;3.65;;;;;;;8.88;100;95552.76;;;;
2019/10/27 05:47:58;;;;;;;5.35;3.65;;;;;;;8.88;100;95552.76;;;;
2019/10/27 05:48:59;;;;;;;5.35;3.65;;;;;;;8.88;100;95552.76;;;;
2019/10/27 05:50:00;;;;;;;5.35;3.65;;;;;;;8.88;100;95552.76;;;;
2019/10/27 05:51:02;;;;;;;5.35;3.65;;;;;;;8.88;100;95552.76;;;;
2019/10/27 05:52:03;;;;;;;5.35;3.65;;;;;;;8.88;100;95552.76;;;;
2019/10/27 05:53:04;;;;;;;5.35;3.65;;;;;;;8.88;100;95552.76;;;;
2019/10/27 05:54:05;;;;;;;5.35;3.65;;;;;;;8.88;100;95552.76;;;;
2019/10/27 05:55:07;;;;;;;5.35;3.65;;;;;;;8.88;100;95552.76;;;;
2019/10/27 05:56:08;;;;;;;5.35;3.65;;;;;;;8.88;100;95552.76;;;;
2019/10/27 05:57:23;;;;;;;5;3.75;;;;;;;8.97;100;95562.74;;;;
2019/10/27 05:58:24;;;;;;;5;3.75;;;;;;;8.97;100;95562.74;;;;
2019/10/27 05:59:25;;;;;;;5;3.75;;;;;;;8.97;100;95562.74;;;;
2019/10/27 06:00:26;;;;;;;5;3.75;;;;;;;8.97;100;95562.74;;;;
2019/10/27 06:01:27;;;;;;;5;3.75;;;;;;;8.97;100;95562.74;;;;
2019/10/27 06:02:29;;;;;;;5;3.75;;;;;;;8.97;100;95562.74;;;;
2019/10/27 06:03:30;;;;;;;5;3.75;;;;;;;8.97;100;95562.74;;;;
2019/10/27 06:04:31;;;;;;;5;3.75;;;;;;;8.97;100;95562.74;;;;
2019/10/27 06:05:32;;;;;;;5;3.75;;;;;;;8.97;100;95562.74;;;;
2019/10/27 06:06:33;;;;;;;5;3.75;;;;;;;8.97;100;95562.74;;;;
2019/10/27 06:07:34;;;;;;;5.3;4;;;;;;;9.04;100;95566.2;;;;
2019/10/27 06:08:36;;;;;;;5.3;4;;;;;;;9.04;100;95566.2;;;;
2019/10/27 06:09:37;;;;;;;5.3;4;;;;;;;9.04;100;95566.2;;;;
2019/10/27 06:10:38;;;;;;;5.3;4;;;;;;;9.04;100;95566.2;;;;
2019/10/27 06:11:39;;;;;;;5.3;4;;;;;;;9.04;100;95566.2;;;;
2019/10/27 06:12:40;;;;;;;5.3;4;;;;;;;9.04;100;95566.2;;;;
2019/10/27 06:13:41;;;;;;;5.3;4;;;;;;;9.04;100;95566.2;;;;
2019/10/27 06:14:42;;;;;;;5.3;4;;;;;;;9.04;100;95566.2;;;;
2019/10/27 06:15:43;;;;;;;5.3;4;;;;;;;9.04;100;95566.2;;;;
2019/10/27 06:16:45;;;;;;;5.3;4;;;;;;;9.04;100;95566.2;;;;
2019/10/27 06:17:46;;;;;;;4.85;4.05;;;;;;;8.99;99.66602;95575.89;;;;
2019/10/27 06:18:47;;;;;;;4.85;4.05;;;;;;;8.99;99.66602;95575.89;;;;
2019/10/27 06:19:48;;;;;;;4.85;4.05;;;;;;;8.99;99.66602;95575.89;;;;
2019/10/27 06:20:49;;;;;;;4.85;4.05;;;;;;;8.99;99.66602;95575.89;;;;
2019/10/27 06:21:50;;;;;;;4.85;4.05;;;;;;;8.99;99.66602;95575.89;;;;
2019/10/27 06:22:51;;;;;;;4.85;4.05;;;;;;;8.99;99.66602;95575.89;;;;
2019/10/27 06:23:52;;;;;;;4.85;4.05;;;;;;;8.99;99.66602;95575.89;;;;
2019/10/27 06:24:54;;;;;;;4.85;4.05;;;;;;;8.99;99.66602;95575.89;;;;